Strona główna
METAR-TAF:

METAR-TAF

Lotnisko :

Hamilton, Ohio, Stany Zjednoczone

Szerokość geograficzna: 39-21-41N, Długość geograficzna: 084-31-15W, wysokość: 193 m

Aktualna obserwacja pogody

Raport powstał 1 godzina i 9 minut temu, godzina 05:53 UTC
Cisza
Temperatura -2°C
Wilgotność 69%
Ciśnienie 1024 hPa
Widzialność: 16.1 km
bezchmurnie

METAR: KHAO 230553Z AUTO 00000KT 10SM CLR M02/M07 A3025 RMK AO2 SLP251 T10221067 10000 21028 58009

czas: 02:02 (07:02 UTC)


TAF: brakujący

Obserwacja i prognoza pogody dla ponad 4000 lotnisk (raport METAR i TAF).

Dostępne stacje oznaczono żółtymi i czerwonymi punktami na mapie.

Najedź kursorem aby zobaczyć nazwę stacji.

Kliknij aby zobaczyć obserwacje i prognozy pogody.

Aby zmienić mapę: kliknij na zielony przycisk z czarnym krzyżykiem, aby powiększyć; na zielony przycisk z myślnikiem, aby pomniejszyć; na zielone strzałki, aby przejść do map sąsiednich.


METAR-TAF: